createdAt,value
2023-04-03T00:02:24.649Z,3.10
2023-04-03T00:04:51.169Z,4.60
2023-04-03T00:07:17.703Z,5.97
2023-04-03T00:09:44.175Z,4.50
2023-04-03T00:12:11.759Z,5.10
2023-04-03T00:14:38.195Z,4.00
2023-04-03T00:17:04.959Z,4.03
2023-04-03T00:19:31.567Z,3.17
2023-04-03T00:21:58.239Z,4.03
2023-04-03T00:24:24.895Z,4.83
2023-04-03T00:26:51.423Z,2.80
2023-04-03T00:29:17.889Z,3.47
2023-04-03T00:31:44.558Z,2.60
2023-04-03T00:34:11.155Z,5.03
2023-04-03T00:36:37.868Z,5.13
2023-04-03T00:39:04.495Z,4.43
2023-04-03T00:41:31.087Z,2.43
2023-04-03T00:43:57.541Z,3.80
2023-04-03T00:46:24.046Z,5.20
2023-04-03T00:48:50.795Z,3.90
2023-04-03T00:51:23.660Z,5.80
2023-04-03T00:53:53.801Z,6.30
2023-04-03T00:56:22.724Z,3.70
2023-04-03T00:58:58.795Z,3.00
2023-04-03T01:01:27.686Z,2.57
2023-04-03T01:03:54.698Z,2.87
2023-04-03T01:06:27.029Z,4.13
2023-04-03T01:08:53.605Z,6.07
2023-04-03T01:11:21.625Z,2.93
2023-04-03T01:13:48.167Z,3.93
2023-04-03T01:16:14.784Z,3.77
2023-04-03T01:18:41.507Z,4.93
2023-04-03T01:21:48.964Z,2.70
2023-04-03T01:24:15.431Z,5.47
2023-04-03T01:26:42.664Z,2.50
2023-04-03T01:29:09.316Z,3.77
2023-04-03T01:31:35.810Z,4.57
2023-04-03T01:34:04.290Z,3.10
2023-04-03T01:36:32.468Z,3.37
2023-04-03T01:39:00.302Z,2.97
2023-04-03T01:41:27.611Z,4.50
2023-04-03T01:43:54.093Z,2.60
2023-04-03T01:46:21.112Z,5.70
2023-04-03T01:48:47.822Z,3.13
2023-04-03T01:51:14.406Z,3.40
2023-04-03T01:53:41.582Z,1.93
2023-04-03T01:56:08.144Z,5.90
2023-04-03T01:58:34.682Z,6.87
2023-04-03T02:01:01.532Z,2.70
2023-04-03T02:03:28.239Z,4.70
2023-04-03T02:05:54.954Z,5.70
2023-04-03T02:08:21.586Z,4.13
2023-04-03T02:10:49.625Z,3.20
2023-04-03T02:13:16.724Z,7.97
2023-04-03T02:15:43.306Z,9.20
2023-04-03T02:18:10.419Z,4.43
2023-04-03T02:20:37.291Z,4.03
2023-04-03T02:23:04.539Z,3.17
2023-04-03T02:25:35.225Z,3.90
2023-04-03T02:28:04.272Z,4.07
2023-04-03T02:30:30.783Z,3.17
2023-04-03T02:32:57.446Z,6.67
2023-04-03T02:35:24.164Z,2.50
2023-04-03T02:37:50.818Z,5.20
2023-04-03T02:40:17.455Z,5.37
2023-04-03T02:42:44.250Z,2.80
2023-04-03T02:45:11.095Z,3.97
2023-04-03T02:47:37.739Z,4.27
2023-04-03T02:50:04.804Z,4.03
2023-04-03T02:52:31.295Z,3.83
2023-04-03T02:54:57.807Z,3.00
2023-04-03T02:57:24.484Z,4.87
2023-04-03T02:59:50.999Z,4.93
2023-04-03T03:02:17.538Z,3.43
2023-04-03T03:04:44.068Z,2.87
2023-04-03T03:07:10.622Z,3.23
2023-04-03T03:09:37.142Z,4.43
2023-04-03T03:12:04.561Z,2.90
2023-04-03T03:14:31.168Z,3.30
2023-04-03T03:16:57.636Z,7.40
2023-04-03T03:19:24.100Z,4.37
2023-04-03T03:21:51.259Z,6.23
2023-04-03T03:24:17.865Z,3.47
2023-04-03T03:26:44.445Z,4.83
2023-04-03T03:29:11.047Z,5.20
2023-04-03T03:31:37.773Z,5.43
2023-04-03T03:34:04.521Z,2.53
2023-04-03T03:36:31.585Z,3.43
2023-04-03T03:38:58.088Z,6.70
2023-04-03T03:41:24.568Z,6.80
2023-04-03T03:43:51.264Z,4.43
2023-04-03T03:46:17.855Z,6.90
2023-04-03T03:48:44.429Z,3.93
2023-04-03T03:51:10.905Z,6.90
2023-04-03T03:53:37.412Z,4.57
2023-04-03T03:56:04.894Z,3.90
2023-04-03T03:58:31.397Z,2.43
2023-04-03T04:00:57.918Z,3.60
2023-04-03T04:03:24.612Z,6.53
2023-04-03T04:05:51.303Z,5.53
2023-04-03T04:08:17.801Z,6.03
2023-04-03T04:10:44.274Z,6.63
2023-04-03T04:13:10.712Z,5.17
2023-04-03T04:15:37.492Z,3.17
2023-04-03T04:18:05.083Z,2.63
2023-04-03T04:20:31.564Z,4.77
2023-04-03T04:22:58.063Z,2.87
2023-04-03T04:25:24.585Z,7.23
2023-04-03T04:27:51.129Z,2.73
2023-04-03T04:30:17.712Z,6.17
2023-04-03T04:32:44.356Z,5.93
2023-04-03T04:35:11.122Z,4.57
2023-04-03T04:37:37.647Z,4.43
2023-04-03T04:40:05.645Z,6.70
2023-04-03T04:42:32.154Z,5.57
2023-04-03T04:44:58.687Z,6.47
2023-04-03T04:47:25.488Z,5.43
2023-04-03T04:49:52.350Z,5.27
2023-04-03T04:52:18.932Z,3.53
2023-04-03T04:54:45.719Z,6.57
2023-04-03T04:57:12.393Z,5.43
2023-04-03T04:59:39.020Z,6.73
2023-04-03T05:02:05.742Z,5.23
2023-04-03T05:04:32.599Z,8.10
2023-04-03T05:07:00.369Z,4.37
2023-04-03T05:09:27.198Z,3.60
2023-04-03T05:11:53.876Z,4.90
2023-04-03T05:14:20.607Z,8.23
2023-04-03T05:16:47.562Z,4.80
2023-04-03T05:19:14.269Z,4.63
2023-04-03T05:21:40.924Z,4.47
2023-04-03T05:24:10.047Z,2.90
2023-04-03T05:26:36.653Z,4.83
2023-04-03T05:29:04.945Z,3.43
2023-04-03T05:31:31.670Z,6.83
2023-04-03T05:33:58.861Z,4.97
2023-04-03T05:36:26.545Z,6.90
2023-04-03T05:38:53.760Z,7.97
2023-04-03T05:41:21.761Z,4.10
2023-04-03T05:43:48.536Z,6.20
2023-04-03T05:46:19.941Z,3.23
2023-04-03T05:48:46.608Z,7.23
2023-04-03T05:51:23.151Z,3.33
2023-04-03T05:53:52.849Z,3.53
2023-04-03T05:56:19.483Z,4.17
2023-04-03T05:58:46.120Z,6.30
2023-04-03T06:01:12.611Z,4.57
2023-04-03T06:03:40.979Z,9.83
2023-04-03T06:06:09.082Z,3.00
2023-04-03T06:08:36.058Z,6.77
2023-04-03T06:11:04.836Z,6.00
2023-04-03T06:13:32.441Z,6.33
2023-04-03T06:15:59.548Z,5.60
2023-04-03T06:18:26.255Z,4.40
2023-04-03T06:20:52.880Z,4.83
2023-04-03T06:23:19.464Z,3.40
2023-04-03T06:25:45.968Z,3.87
2023-04-03T06:28:12.737Z,5.87
2023-04-03T06:30:39.519Z,9.70
2023-04-03T06:33:06.879Z,5.90
2023-04-03T06:35:35.889Z,5.53
2023-04-03T06:38:03.867Z,7.30
2023-04-03T06:40:30.691Z,6.40
2023-04-03T06:42:57.301Z,3.33
2023-04-03T06:45:25.709Z,4.07
2023-04-03T06:47:52.183Z,3.03
2023-04-03T06:50:19.013Z,3.23
2023-04-03T06:52:45.831Z,3.80
2023-04-03T06:55:13.041Z,3.17
2023-04-03T06:57:40.023Z,4.70
2023-04-03T07:00:08.314Z,6.00
2023-04-03T07:02:34.937Z,4.47
2023-04-03T07:05:01.930Z,5.87
2023-04-03T07:07:28.674Z,4.77
2023-04-03T07:09:55.355Z,5.70
2023-04-03T07:12:22.120Z,3.33
2023-04-03T07:14:48.733Z,4.10
2023-04-03T07:17:15.552Z,7.50
2023-04-03T07:19:42.404Z,2.90
2023-04-03T07:22:09.816Z,7.43
2023-04-03T07:24:36.828Z,4.20
2023-04-03T07:27:09.655Z,4.50
2023-04-03T07:29:36.666Z,3.30
2023-04-03T07:32:05.303Z,5.47
2023-04-03T07:34:33.535Z,4.10
2023-04-03T07:37:01.235Z,5.73
2023-04-03T07:39:28.896Z,5.33
2023-04-03T07:41:57.602Z,4.13
2023-04-03T07:44:24.331Z,5.43
2023-04-03T07:46:51.577Z,3.20
2023-04-03T07:49:24.073Z,4.73
2023-04-03T07:51:51.217Z,9.83
2023-04-03T07:54:17.910Z,5.20
2023-04-03T07:56:45.046Z,6.27
2023-04-03T07:59:12.400Z,3.83
2023-04-03T08:01:39.221Z,4.20
2023-04-03T08:04:06.598Z,6.43
2023-04-03T08:06:45.579Z,3.33
2023-04-03T08:09:14.212Z,3.17
2023-04-03T08:11:41.127Z,3.40
2023-04-03T08:14:08.068Z,3.77
2023-04-03T08:16:34.984Z,2.83
2023-04-03T08:19:02.623Z,2.07
2023-04-03T08:21:29.981Z,4.97
2023-04-03T08:23:57.720Z,9.40
2023-04-03T08:26:24.425Z,6.23
2023-04-03T08:28:50.975Z,6.13
2023-04-03T08:31:19.992Z,5.47
2023-04-03T08:33:47.715Z,3.83
2023-04-03T08:36:20.731Z,6.80
2023-04-03T08:38:47.838Z,3.80
2023-04-03T08:41:31.648Z,4.10
2023-04-03T08:44:23.298Z,3.07
2023-04-03T08:46:52.939Z,3.30
2023-04-03T08:49:26.407Z,2.07
2023-04-03T08:51:53.817Z,3.93
2023-04-03T08:54:29.545Z,3.55
2023-04-03T08:56:56.557Z,5.30
2023-04-03T08:59:29.306Z,6.73
2023-04-03T09:01:57.564Z,2.37
2023-04-03T09:04:25.278Z,5.90
2023-04-03T09:06:55.967Z,3.30
2023-04-03T09:09:52.191Z,2.50
2023-04-03T09:12:46.837Z,3.60
2023-04-03T09:15:37.793Z,2.30
2023-04-03T09:18:28.719Z,1.30
2023-04-03T09:21:03.581Z,2.03
2023-04-03T09:23:48.535Z,3.37
2023-04-03T09:26:37.520Z,2.30
2023-04-03T09:29:08.156Z,2.07
2023-04-03T09:31:42.408Z,5.17
2023-04-03T09:34:23.732Z,2.73
2023-04-03T09:36:52.485Z,4.23
2023-04-03T09:39:28.205Z,6.27
2023-04-03T09:42:19.782Z,2.50
2023-04-03T09:44:55.951Z,2.90
2023-04-03T09:47:26.975Z,4.27
2023-04-03T09:50:21.183Z,2.30
2023-04-03T09:52:50.259Z,2.93
2023-04-03T09:55:19.536Z,4.43
2023-04-03T09:57:46.956Z,3.33
2023-04-03T10:00:26.456Z,3.23
2023-04-03T10:02:56.798Z,2.20
2023-04-03T10:05:28.216Z,2.83
2023-04-03T10:08:16.414Z,3.47
2023-04-03T10:10:48.286Z,3.00
2023-04-03T10:13:21.062Z,2.97
2023-04-03T10:16:03.833Z,2.70
2023-04-03T10:18:41.313Z,2.83
2023-04-03T10:21:26.680Z,2.83
2023-04-03T10:24:15.108Z,2.43
2023-04-03T10:26:58.985Z,4.60
2023-04-03T10:29:48.544Z,2.13
2023-04-03T10:32:40.376Z,4.43
2023-04-03T10:35:32.442Z,1.50
2023-04-03T10:38:17.183Z,2.83
2023-04-03T10:41:19.632Z,3.03
2023-04-03T10:43:57.592Z,2.23
2023-04-03T10:46:26.853Z,1.23
2023-04-03T10:48:59.450Z,2.20
2023-04-03T10:51:29.756Z,3.13
2023-04-03T10:54:21.300Z,3.10
2023-04-03T10:56:51.351Z,4.07
2023-04-03T10:59:29.919Z,3.07
2023-04-03T11:02:00.772Z,1.43
2023-04-03T11:04:31.391Z,2.40
2023-04-03T11:07:03.650Z,1.63
2023-04-03T11:09:38.419Z,4.27
2023-04-03T11:12:30.082Z,3.63
2023-04-03T11:14:57.576Z,3.00
2023-04-03T11:17:47.561Z,1.93
2023-04-03T11:20:28.831Z,2.40
2023-04-03T11:23:03.453Z,4.37
2023-04-03T11:25:32.015Z,2.83
2023-04-03T11:28:03.812Z,2.60
2023-04-03T11:30:49.415Z,3.57
2023-04-03T11:33:40.803Z,1.87
2023-04-03T11:36:26.327Z,5.20
2023-04-03T11:39:04.540Z,3.57
2023-04-03T11:41:32.740Z,2.30
2023-04-03T11:44:27.934Z,3.43
2023-04-03T11:47:01.845Z,1.60
2023-04-03T11:50:04.833Z,1.43
2023-04-03T11:52:43.772Z,3.27
2023-04-03T11:55:23.375Z,5.17
2023-04-03T11:57:59.329Z,3.43
2023-04-03T12:00:44.899Z,2.50
2023-04-03T12:03:26.919Z,2.27
2023-04-03T12:06:05.958Z,2.00
2023-04-03T12:08:44.256Z,2.47
2023-04-03T12:11:13.474Z,3.80
2023-04-03T12:13:55.154Z,4.97
2023-04-03T12:16:38.601Z,2.33
2023-04-03T12:19:29.300Z,3.30
2023-04-03T12:22:03.318Z,5.73
2023-04-03T12:24:35.760Z,3.13
2023-04-03T12:27:06.953Z,2.73
2023-04-03T12:29:33.472Z,2.87
2023-04-03T12:32:31.051Z,1.97
2023-04-03T12:35:12.384Z,1.70
2023-04-03T12:38:12.880Z,3.03
2023-04-03T12:40:39.301Z,2.43
2023-04-03T12:43:07.086Z,2.63
2023-04-03T12:46:12.998Z,4.63
2023-04-03T12:48:49.316Z,7.17
2023-04-03T12:51:19.987Z,2.73
2023-04-03T12:53:46.774Z,2.47
2023-04-03T12:56:28.215Z,2.73
2023-04-03T12:58:58.307Z,2.73
2023-04-03T13:01:26.288Z,1.67
2023-04-03T13:03:59.726Z,2.40
2023-04-03T13:06:35.004Z,2.23
2023-04-03T13:09:03.465Z,2.57
2023-04-03T13:11:36.492Z,2.30
2023-04-03T13:14:06.938Z,3.10
2023-04-03T13:16:34.702Z,1.80
2023-04-03T13:19:01.514Z,3.03
2023-04-03T13:21:33.304Z,2.97
2023-04-03T13:24:14.715Z,2.57
2023-04-03T13:26:43.125Z,3.23
2023-04-03T13:29:29.847Z,2.67
2023-04-03T13:31:58.436Z,1.43
2023-04-03T13:34:28.785Z,2.70
2023-04-03T13:36:59.366Z,2.83
2023-04-03T13:39:29.854Z,2.13
2023-04-03T13:41:59.206Z,2.23
2023-04-03T13:44:30.471Z,2.63
2023-04-03T13:47:03.312Z,3.67
2023-04-03T13:49:47.526Z,3.63
2023-04-03T13:52:32.092Z,1.83
2023-04-03T13:55:07.844Z,1.80
2023-04-03T13:57:36.855Z,3.67
2023-04-03T14:00:50.297Z,3.70
2023-04-03T14:03:38.977Z,1.83
2023-04-03T14:06:07.650Z,2.20
2023-04-03T14:08:42.335Z,3.07
2023-04-03T14:11:17.007Z,4.00
2023-04-03T14:13:45.034Z,1.50
2023-04-03T14:16:17.661Z,1.33
2023-04-03T14:18:46.172Z,4.10
2023-04-03T14:21:14.816Z,2.93
2023-04-03T14:23:41.764Z,4.23
2023-04-03T14:26:21.772Z,2.03
2023-04-03T14:28:50.883Z,2.53
2023-04-03T14:31:18.711Z,2.97
2023-04-03T14:33:46.371Z,3.53
2023-04-03T14:36:34.923Z,1.17
2023-04-03T14:39:02.305Z,2.97
2023-04-03T14:41:29.442Z,5.13
2023-04-03T14:43:56.586Z,2.00
2023-04-03T14:46:43.121Z,2.43
2023-04-03T14:49:26.508Z,2.83
2023-04-03T14:51:53.782Z,2.63
2023-04-03T14:54:26.699Z,4.60
2023-04-03T14:56:54.926Z,2.13
2023-04-03T14:59:22.528Z,5.90
2023-04-03T15:01:49.699Z,3.30
2023-04-03T15:04:19.554Z,3.43
2023-04-03T15:06:47.689Z,2.03
2023-04-03T15:09:27.349Z,14.33
2023-04-03T15:11:55.477Z,2.17
2023-04-03T15:16:52.419Z,2.07
2023-04-03T15:19:18.876Z,3.60
2023-04-03T15:21:45.643Z,4.83
2023-04-03T15:24:12.388Z,6.10
2023-04-03T15:26:39.125Z,2.63
2023-04-03T15:29:05.868Z,3.53
2023-04-03T15:31:32.862Z,3.57
2023-04-03T15:33:59.507Z,3.93
2023-04-03T15:36:34.171Z,3.43
2023-04-03T15:39:01.624Z,4.20
2023-04-03T15:41:28.108Z,4.43
2023-04-03T15:43:54.624Z,3.50
2023-04-03T15:46:21.306Z,2.53
2023-04-03T15:48:47.859Z,5.70
2023-04-03T15:51:14.384Z,5.20
2023-04-03T15:53:41.191Z,5.77
2023-04-03T15:56:09.163Z,3.50
2023-04-03T15:58:35.817Z,2.80
2023-04-03T16:01:04.621Z,6.63
2023-04-03T16:03:32.021Z,3.40
2023-04-03T16:05:58.752Z,6.53
2023-04-03T16:08:26.167Z,4.40
2023-04-03T16:10:52.733Z,2.23
2023-04-03T16:13:19.324Z,3.83
2023-04-03T16:15:46.035Z,4.37
2023-04-03T16:18:14.983Z,2.10
2023-04-03T16:20:41.853Z,3.43
2023-04-03T16:23:08.565Z,3.13
2023-04-03T16:25:35.317Z,3.90
2023-04-03T16:28:01.845Z,2.80
2023-04-03T16:30:28.731Z,5.47
2023-04-03T16:32:56.515Z,4.20
2023-04-03T16:35:23.573Z,4.07
2023-04-03T16:37:50.338Z,3.83
2023-04-03T16:40:16.925Z,3.47
2023-04-03T16:42:43.523Z,2.43
2023-04-03T16:45:10.695Z,2.00
2023-04-03T16:47:37.306Z,3.03
2023-04-03T16:50:04.946Z,3.87
2023-04-03T16:52:35.126Z,4.40
2023-04-03T16:55:01.974Z,4.90
2023-04-03T16:57:29.025Z,6.47
2023-04-03T16:59:56.291Z,2.67
2023-04-03T17:02:25.663Z,2.47
2023-04-03T17:04:55.937Z,2.53
2023-04-03T17:07:24.350Z,2.63
2023-04-03T17:09:51.221Z,5.47
2023-04-03T17:12:17.819Z,5.10
2023-04-03T17:14:44.420Z,5.67
2023-04-03T17:17:11.009Z,3.70
2023-04-03T17:19:38.146Z,7.87
2023-04-03T17:22:05.116Z,7.27
2023-04-03T17:24:31.617Z,8.40
2023-04-03T17:26:58.304Z,4.30
2023-04-03T17:29:24.978Z,6.30
2023-04-03T17:31:51.779Z,5.83
2023-04-03T17:34:18.512Z,7.10
2023-04-03T17:36:45.750Z,6.27
2023-04-03T17:39:12.534Z,6.37
2023-04-03T17:41:39.173Z,5.90
2023-04-03T17:44:06.236Z,7.60
2023-04-03T17:46:34.782Z,7.07
2023-04-03T17:49:04.272Z,4.97
2023-04-03T17:51:34.434Z,6.47
2023-04-03T17:54:01.107Z,4.27
2023-04-03T17:56:27.819Z,4.73
2023-04-03T17:58:56.542Z,4.67
2023-04-03T18:01:28.078Z,7.33
2023-04-03T18:03:57.103Z,6.73
2023-04-03T18:06:37.178Z,5.90
2023-04-03T18:09:10.723Z,7.20
2023-04-03T18:11:37.452Z,6.33
2023-04-03T18:14:05.823Z,3.77
2023-04-03T18:16:32.593Z,6.10
2023-04-03T18:19:20.549Z,6.93
2023-04-03T18:21:48.002Z,6.33
2023-04-03T18:24:16.544Z,8.77
2023-04-03T18:26:44.601Z,8.63
2023-04-03T18:29:11.940Z,8.03
2023-04-03T18:31:41.119Z,8.60
2023-04-03T18:34:07.698Z,5.87
2023-04-03T18:36:34.487Z,6.77
2023-04-03T18:39:00.965Z,10.37
2023-04-03T18:41:28.931Z,8.87
2023-04-03T18:43:56.781Z,8.33
2023-04-03T18:46:23.440Z,8.07
2023-04-03T18:48:49.916Z,9.17
2023-04-03T18:51:16.858Z,9.43
2023-04-03T18:53:43.372Z,4.57
2023-04-03T18:56:10.092Z,10.43
2023-04-03T18:58:36.810Z,7.23
2023-04-03T19:01:05.026Z,5.80
2023-04-03T19:03:32.604Z,6.10
2023-04-03T19:05:59.657Z,7.20
2023-04-03T19:08:26.115Z,6.73
2023-04-03T19:10:52.572Z,6.87
2023-04-03T19:13:19.131Z,6.50
2023-04-03T19:15:46.776Z,7.27
2023-04-03T19:18:13.380Z,7.67
2023-04-03T19:20:40.297Z,8.07
2023-04-03T19:23:08.598Z,7.60
2023-04-03T19:25:36.024Z,7.53
2023-04-03T19:28:03.233Z,5.53
2023-04-03T19:30:31.814Z,7.70
2023-04-03T19:32:58.403Z,7.77
2023-04-03T19:35:25.090Z,10.13
2023-04-03T19:37:53.356Z,8.07
2023-04-03T19:40:19.922Z,6.37
2023-04-03T19:42:46.484Z,5.93
2023-04-03T19:45:15.044Z,7.13
2023-04-03T19:47:41.767Z,7.43
2023-04-03T19:50:09.225Z,8.33
2023-04-03T19:52:35.877Z,8.70
2023-04-03T19:55:03.599Z,8.30
2023-04-03T19:57:30.916Z,9.57
2023-04-03T19:59:57.578Z,8.27
2023-04-03T20:02:24.114Z,10.57
2023-04-03T20:04:51.057Z,8.40
2023-04-03T20:07:17.816Z,11.30
2023-04-03T20:09:44.311Z,10.50
2023-04-03T20:12:10.968Z,7.60
2023-04-03T20:14:39.432Z,8.40
2023-04-03T20:17:05.913Z,11.47
2023-04-03T20:19:32.789Z,11.43
2023-04-03T20:22:00.964Z,10.87
2023-04-03T20:24:28.791Z,13.03
2023-04-03T20:26:57.633Z,8.67
2023-04-03T20:29:27.427Z,9.67
2023-04-03T20:31:55.268Z,8.90
2023-04-03T20:34:22.053Z,8.87
2023-04-03T20:36:50.121Z,8.37
2023-04-03T20:39:18.860Z,8.50
2023-04-03T20:41:45.926Z,9.90
2023-04-03T20:44:12.586Z,7.57
2023-04-03T20:46:52.313Z,8.07
2023-04-03T20:49:21.054Z,6.87
2023-04-03T20:51:47.816Z,6.33
2023-04-03T20:54:14.689Z,9.63
2023-04-03T20:56:41.567Z,12.43
2023-04-03T20:59:08.404Z,8.83
2023-04-03T21:01:36.024Z,10.40
2023-04-03T21:04:10.823Z,8.90
2023-04-03T21:07:14.816Z,8.33
2023-04-03T21:10:19.229Z,5.60
2023-04-03T21:13:23.710Z,7.17
2023-04-03T21:15:51.243Z,6.93
2023-04-03T21:19:08.625Z,7.03
2023-04-03T21:21:38.804Z,11.67
2023-04-03T21:24:09.685Z,8.83
2023-04-03T21:26:37.361Z,7.90
2023-04-03T21:29:06.486Z,8.17
2023-04-03T21:31:51.641Z,8.23
2023-04-03T21:34:19.918Z,9.43
2023-04-03T21:36:46.592Z,8.53
2023-04-03T21:39:13.085Z,9.80
2023-04-03T21:41:39.665Z,6.73
2023-04-03T21:44:06.247Z,8.87
2023-04-03T21:46:32.962Z,10.80
2023-04-03T21:48:59.498Z,7.47
2023-04-03T21:51:27.795Z,7.37
2023-04-03T21:53:54.661Z,9.37
2023-04-03T21:56:24.674Z,6.67
2023-04-03T21:58:51.770Z,9.70
2023-04-03T22:01:19.421Z,6.13
2023-04-03T22:03:47.090Z,13.93
2023-04-03T22:06:15.342Z,8.93
2023-04-03T22:08:42.489Z,6.60
2023-04-03T22:11:14.388Z,8.67
2023-04-03T22:13:42.182Z,8.23
2023-04-03T22:16:09.903Z,7.30
2023-04-03T22:18:36.509Z,10.83
2023-04-03T22:21:04.606Z,9.63
2023-04-03T22:23:31.704Z,9.77
2023-04-03T22:26:01.993Z,15.97
2023-04-03T22:28:30.349Z,8.40
2023-04-03T22:30:57.154Z,9.60
2023-04-03T22:33:23.656Z,5.27
2023-04-03T22:35:51.080Z,6.93
2023-04-03T22:38:17.855Z,6.07
2023-04-03T22:40:45.311Z,8.33
2023-04-03T22:43:12.435Z,6.77
2023-04-03T22:45:48.528Z,8.23
2023-04-03T22:48:15.363Z,8.73
2023-04-03T22:50:42.260Z,6.90
2023-04-03T22:53:09.167Z,8.00
2023-04-03T22:55:36.412Z,8.20
2023-04-03T22:58:03.115Z,10.83
2023-04-03T23:00:29.678Z,9.80
2023-04-03T23:02:56.540Z,9.50
2023-04-03T23:05:23.021Z,9.33
2023-04-03T23:07:49.548Z,7.40
2023-04-03T23:10:16.298Z,6.33
2023-04-03T23:12:42.793Z,6.70
2023-04-03T23:15:09.726Z,9.73
2023-04-03T23:17:37.106Z,5.37
2023-04-03T23:20:04.728Z,7.37
2023-04-03T23:22:32.013Z,9.27
2023-04-03T23:24:58.642Z,10.47
2023-04-03T23:27:25.137Z,8.40
2023-04-03T23:29:51.805Z,6.00
2023-04-03T23:32:18.284Z,8.50
2023-04-03T23:34:44.920Z,14.77
2023-04-03T23:37:12.467Z,7.60
2023-04-03T23:39:38.997Z,4.10
2023-04-03T23:42:10.830Z,9.70
2023-04-03T23:44:37.551Z,5.60
2023-04-03T23:47:04.382Z,5.50
2023-04-03T23:49:31.011Z,10.60
2023-04-03T23:51:57.728Z,8.37
2023-04-03T23:54:24.278Z,9.27
2023-04-03T23:56:50.853Z,6.23
2023-04-03T23:59:17.564Z,5.77
